createdAt,value
2022-12-02T00:00:50.465Z,45.30
2022-12-02T00:03:19.606Z,43.92
2022-12-02T00:05:50.953Z,45.17
2022-12-02T00:08:22.370Z,44.15
2022-12-02T00:10:49.834Z,44.13
2022-12-02T00:13:30.165Z,43.13
2022-12-02T00:16:01.363Z,43.65
2022-12-02T00:18:28.582Z,36.45
2022-12-02T00:20:55.639Z,42.13
2022-12-02T00:23:22.474Z,40.67
2022-12-02T00:25:50.946Z,39.20
2022-12-02T00:28:17.807Z,47.33
2022-12-02T00:30:44.621Z,37.13
2022-12-02T00:33:11.776Z,36.40
2022-12-02T00:35:38.620Z,43.03
2022-12-02T00:38:05.497Z,41.25
2022-12-02T00:40:32.330Z,44.47
2022-12-02T00:43:21.011Z,41.38
2022-12-02T00:46:07.004Z,44.55
2022-12-02T00:48:34.363Z,44.80
2022-12-02T00:51:01.147Z,50.83
2022-12-02T00:53:27.958Z,47.75
2022-12-02T00:55:54.742Z,44.78
2022-12-02T00:58:21.582Z,51.85
2022-12-02T01:00:48.379Z,47.88
2022-12-02T01:03:15.258Z,44.78
2022-12-02T01:05:42.010Z,47.45
2022-12-02T01:08:08.874Z,44.28
2022-12-02T01:10:35.712Z,46.80
2022-12-02T01:13:02.461Z,44.55
2022-12-02T01:15:29.228Z,40.67
2022-12-02T01:17:55.957Z,37.60
2022-12-02T01:20:22.811Z,43.42
2022-12-02T01:22:49.567Z,43.35
2022-12-02T01:25:16.408Z,43.47
2022-12-02T01:27:43.136Z,41.28
2022-12-02T01:30:10.415Z,38.88
2022-12-02T01:32:37.188Z,31.67
2022-12-02T01:35:04.212Z,32.83
2022-12-02T01:37:30.974Z,34.65
2022-12-02T01:39:57.735Z,41.28
2022-12-02T01:42:24.473Z,41.80
2022-12-02T01:44:51.526Z,44.10
2022-12-02T01:47:18.544Z,37.40
2022-12-02T01:49:45.311Z,48.47
2022-12-02T01:52:12.124Z,42.67
2022-12-02T01:54:38.866Z,34.30
2022-12-02T01:57:10.162Z,38.00
2022-12-02T01:59:36.960Z,34.00
2022-12-02T02:02:03.779Z,36.53
2022-12-02T02:04:30.551Z,41.55
2022-12-02T02:06:57.308Z,36.00
2022-12-02T02:09:24.027Z,37.60
2022-12-02T02:11:50.774Z,33.03
2022-12-02T02:14:17.531Z,40.03
2022-12-02T02:16:44.399Z,34.30
2022-12-02T02:19:13.257Z,37.78
2022-12-02T02:21:42.871Z,35.10
2022-12-02T02:24:09.618Z,34.00
2022-12-02T02:26:36.374Z,33.88
2022-12-02T02:29:03.079Z,33.35
2022-12-02T02:31:29.886Z,28.75
2022-12-02T02:33:56.656Z,26.85
2022-12-02T02:36:23.429Z,31.95
2022-12-02T02:38:50.143Z,33.47
2022-12-02T02:41:16.934Z,32.75
2022-12-02T02:43:43.695Z,33.55
2022-12-02T02:46:10.536Z,37.92
2022-12-02T02:48:37.507Z,45.38
2022-12-02T02:51:04.332Z,37.63
2022-12-02T02:53:31.095Z,41.50
2022-12-02T02:55:57.915Z,38.17
2022-12-02T02:58:25.840Z,34.00
2022-12-02T03:00:59.750Z,39.45
2022-12-02T03:03:28.062Z,38.30
2022-12-02T03:05:54.828Z,40.60
2022-12-02T03:08:22.008Z,36.22
2022-12-02T03:10:48.738Z,37.15
2022-12-02T03:13:15.595Z,38.97
2022-12-02T03:15:42.351Z,35.63
2022-12-02T03:18:09.278Z,40.13
2022-12-02T03:20:36.002Z,30.95
2022-12-02T03:23:02.766Z,40.17
2022-12-02T03:25:29.542Z,24.85
2022-12-02T03:27:56.403Z,30.98
2022-12-02T03:30:23.104Z,39.15
2022-12-02T03:32:49.809Z,31.23
2022-12-02T03:35:16.610Z,27.55
2022-12-02T03:37:43.321Z,32.72
2022-12-02T03:40:10.464Z,34.25
2022-12-02T03:42:37.491Z,38.08
2022-12-02T03:45:04.630Z,37.83
2022-12-02T03:47:31.374Z,30.88
2022-12-02T03:49:58.147Z,28.70
2022-12-02T03:52:24.924Z,36.85
2022-12-02T03:54:55.135Z,31.15
2022-12-02T03:57:22.559Z,33.28
2022-12-02T03:59:49.347Z,30.02
2022-12-02T04:02:16.110Z,30.83
2022-12-02T04:04:42.910Z,28.23
2022-12-02T04:07:09.659Z,27.77
2022-12-02T04:09:36.413Z,32.40
2022-12-02T04:12:03.184Z,28.00
2022-12-02T04:14:29.975Z,23.95
2022-12-02T04:16:56.781Z,26.50
2022-12-02T04:19:24.080Z,31.05
2022-12-02T04:21:51.444Z,26.58
2022-12-02T04:24:18.212Z,25.42
2022-12-02T04:26:45.032Z,26.60
2022-12-02T04:29:11.876Z,27.92
2022-12-02T04:31:38.682Z,24.45
2022-12-02T04:34:05.446Z,26.63
2022-12-02T04:36:32.285Z,25.45
2022-12-02T04:38:58.986Z,23.40
2022-12-02T04:41:25.772Z,25.23
2022-12-02T04:43:52.504Z,24.85
2022-12-02T04:46:19.312Z,26.15
2022-12-02T04:48:46.196Z,30.27
2022-12-02T04:51:12.924Z,22.52
2022-12-02T04:53:39.683Z,23.85
2022-12-02T04:56:06.563Z,20.60
2022-12-02T04:58:33.345Z,20.23
2022-12-02T05:01:00.080Z,17.42
2022-12-02T05:03:26.801Z,19.38
2022-12-02T05:05:53.703Z,23.35
2022-12-02T05:08:20.524Z,23.45
2022-12-02T05:10:47.259Z,19.38
2022-12-02T05:13:13.977Z,22.98
2022-12-02T05:15:40.760Z,28.08
2022-12-02T05:18:07.598Z,26.30
2022-12-02T05:20:34.436Z,21.98
2022-12-02T05:23:01.167Z,18.75
2022-12-02T05:25:27.867Z,23.45
2022-12-02T05:27:55.858Z,22.10
2022-12-02T05:30:22.589Z,22.20
2022-12-02T05:32:49.350Z,25.63
2022-12-02T05:35:16.200Z,24.88
2022-12-02T05:37:42.894Z,18.30
2022-12-02T05:40:10.332Z,24.08
2022-12-02T05:42:37.074Z,24.08
2022-12-02T05:45:13.617Z,18.58
2022-12-02T05:47:40.350Z,23.30
2022-12-02T05:50:13.709Z,20.02
2022-12-02T05:52:40.506Z,23.55
2022-12-02T05:55:18.460Z,21.38
2022-12-02T05:57:46.312Z,24.88
2022-12-02T06:00:14.716Z,22.60
2022-12-02T06:02:52.793Z,22.45
2022-12-02T06:05:27.448Z,24.83
2022-12-02T06:07:56.736Z,19.90
2022-12-02T06:10:29.209Z,22.95
2022-12-02T06:13:01.488Z,23.33
2022-12-02T06:15:36.303Z,31.38
2022-12-02T06:18:09.938Z,21.88
2022-12-02T06:20:36.706Z,23.55
2022-12-02T06:23:03.831Z,18.27
2022-12-02T06:25:31.499Z,18.90
2022-12-02T06:28:28.819Z,20.63
2022-12-02T06:30:59.729Z,18.63
2022-12-02T06:33:31.375Z,21.30
2022-12-02T06:35:59.229Z,22.90
2022-12-02T06:38:30.959Z,21.35
2022-12-02T06:40:59.734Z,20.17
2022-12-02T06:43:30.920Z,20.48
2022-12-02T06:45:58.080Z,19.25
2022-12-02T06:48:34.169Z,21.52
2022-12-02T06:51:16.057Z,20.38
2022-12-02T06:53:43.097Z,17.90
2022-12-02T06:56:25.870Z,21.58
2022-12-02T06:59:03.378Z,19.40
2022-12-02T07:01:30.680Z,15.35
2022-12-02T07:04:01.840Z,23.30
2022-12-02T07:06:29.424Z,18.60
2022-12-02T07:08:57.462Z,19.40
2022-12-02T07:11:51.431Z,17.58
2022-12-02T07:14:29.436Z,20.25
2022-12-02T07:16:57.855Z,16.33
2022-12-02T07:19:30.269Z,16.95
2022-12-02T07:21:57.003Z,15.38
2022-12-02T07:24:23.918Z,18.35
2022-12-02T07:26:50.998Z,16.17
2022-12-02T07:29:26.439Z,16.15
2022-12-02T07:31:53.290Z,21.63
2022-12-02T07:34:20.074Z,20.17
2022-12-02T07:36:46.928Z,16.92
2022-12-02T07:39:13.643Z,20.33
2022-12-02T07:41:40.434Z,21.30
2022-12-02T07:44:07.213Z,17.20
2022-12-02T07:46:34.083Z,17.23
2022-12-02T07:49:00.846Z,20.38
2022-12-02T07:51:27.618Z,16.02
2022-12-02T07:53:54.322Z,19.30
2022-12-02T07:56:21.086Z,22.70
2022-12-02T07:59:11.325Z,19.88
2022-12-02T08:01:34.699Z,17.48
2022-12-02T08:04:01.597Z,15.98
2022-12-02T08:06:28.369Z,21.98
2022-12-02T08:08:55.073Z,17.70
2022-12-02T08:11:21.824Z,18.77
2022-12-02T08:13:48.585Z,18.98
2022-12-02T08:16:15.388Z,19.75
2022-12-02T08:18:42.144Z,20.67
2022-12-02T08:21:09.716Z,23.80
2022-12-02T08:23:37.020Z,25.17
2022-12-02T08:26:04.140Z,22.25
2022-12-02T08:28:30.846Z,24.17
2022-12-02T08:30:57.619Z,23.63
2022-12-02T08:33:24.445Z,18.27
2022-12-02T08:35:51.144Z,17.08
2022-12-02T08:38:17.943Z,17.42
2022-12-02T08:40:44.689Z,20.15
2022-12-02T08:43:11.610Z,16.40
2022-12-02T08:45:38.376Z,20.85
2022-12-02T08:48:05.205Z,18.25
2022-12-02T08:50:32.440Z,18.95
2022-12-02T08:52:59.138Z,19.52
2022-12-02T08:55:26.668Z,16.75
2022-12-02T08:57:54.886Z,25.17
2022-12-02T09:00:21.896Z,23.45
2022-12-02T09:02:48.859Z,18.90
2022-12-02T09:05:15.847Z,18.65
2022-12-02T09:07:42.614Z,17.38
2022-12-02T09:10:11.904Z,21.92
2022-12-02T09:12:38.694Z,17.90
2022-12-02T09:15:05.902Z,19.40
2022-12-02T09:17:32.669Z,22.88
2022-12-02T09:19:59.493Z,19.70
2022-12-02T09:22:26.238Z,21.92
2022-12-02T09:24:53.268Z,24.55
2022-12-02T09:27:20.228Z,28.55
2022-12-02T09:29:47.071Z,23.70
2022-12-02T09:32:13.794Z,25.17
2022-12-02T09:34:40.530Z,24.25
2022-12-02T09:37:07.425Z,22.60
2022-12-02T09:39:38.806Z,30.85
2022-12-02T09:42:07.387Z,25.85
2022-12-02T09:44:34.183Z,23.75
2022-12-02T09:47:00.969Z,18.10
2022-12-02T09:49:27.781Z,25.23
2022-12-02T09:51:56.030Z,26.90
2022-12-02T09:54:22.819Z,22.17
2022-12-02T09:56:49.570Z,24.02
2022-12-02T09:59:16.727Z,22.65
2022-12-02T10:01:46.017Z,24.30
2022-12-02T10:04:13.972Z,21.00
2022-12-02T10:06:41.356Z,22.02
2022-12-02T10:09:13.389Z,20.13
2022-12-02T10:11:40.106Z,25.83
2022-12-02T10:14:07.176Z,19.58
2022-12-02T10:16:34.308Z,20.85
2022-12-02T10:19:01.986Z,21.98
2022-12-02T10:21:29.033Z,21.63
2022-12-02T10:23:57.938Z,22.30
2022-12-02T10:26:24.970Z,19.83
2022-12-02T10:29:06.366Z,21.83
2022-12-02T10:31:33.315Z,22.42
2022-12-02T10:34:02.261Z,23.25
2022-12-02T10:36:42.169Z,24.60
2022-12-02T10:39:21.694Z,22.70
2022-12-02T10:42:07.878Z,26.08
2022-12-02T10:44:36.233Z,27.20
2022-12-02T10:47:17.409Z,22.77
2022-12-02T10:49:48.596Z,20.98
2022-12-02T10:52:15.811Z,25.10
2022-12-02T10:54:45.739Z,24.15
2022-12-02T10:57:16.772Z,24.40
2022-12-02T10:59:43.519Z,27.50
2022-12-02T11:02:26.502Z,23.50
2022-12-02T11:04:53.653Z,22.15
2022-12-02T11:07:21.791Z,22.45
2022-12-02T11:09:52.425Z,20.02
2022-12-02T11:12:35.235Z,19.27
2022-12-02T11:15:02.163Z,23.77
2022-12-02T11:18:01.491Z,22.95
2022-12-02T11:20:47.421Z,26.48
2022-12-02T11:23:33.577Z,26.75
2022-12-02T11:26:04.419Z,16.88
2022-12-02T11:28:32.242Z,24.20
2022-12-02T11:31:11.601Z,19.42
2022-12-02T11:33:47.433Z,20.02
2022-12-02T11:36:24.116Z,23.05
2022-12-02T11:41:18.459Z,21.52
2022-12-02T11:43:48.233Z,17.27
2022-12-02T11:46:22.639Z,18.95
2022-12-02T11:48:56.235Z,26.60
2022-12-02T11:51:29.135Z,21.08
2022-12-02T11:53:56.011Z,19.20
2022-12-02T11:56:22.810Z,19.23
2022-12-02T11:58:49.607Z,23.05
2022-12-02T12:01:18.718Z,21.50
2022-12-02T12:03:49.707Z,26.85
2022-12-02T12:06:17.199Z,17.25
2022-12-02T12:08:49.329Z,21.75
2022-12-02T12:11:26.031Z,21.20
2022-12-02T12:14:11.195Z,20.75
2022-12-02T12:16:47.522Z,20.25
2022-12-02T12:19:17.181Z,22.95
2022-12-02T12:22:25.900Z,19.25
2022-12-02T12:24:53.056Z,20.42
2022-12-02T12:27:36.903Z,19.17
2022-12-02T12:30:06.256Z,25.03
2022-12-02T12:32:33.122Z,23.52
2022-12-02T12:34:59.957Z,18.65
2022-12-02T12:37:26.780Z,22.75
2022-12-02T12:39:53.595Z,19.38
2022-12-02T12:42:20.406Z,20.20
2022-12-02T12:44:47.267Z,21.05
2022-12-02T12:47:14.045Z,21.13
2022-12-02T12:49:40.825Z,23.73
2022-12-02T12:52:07.604Z,24.80
2022-12-02T12:54:35.921Z,28.27
2022-12-02T12:57:02.927Z,20.27
2022-12-02T12:59:29.802Z,24.20
2022-12-02T13:01:56.648Z,18.52
2022-12-02T13:04:23.577Z,18.10
2022-12-02T13:06:50.423Z,21.08
2022-12-02T13:09:17.220Z,19.55
2022-12-02T13:11:44.436Z,21.77
2022-12-02T13:14:11.218Z,17.58
2022-12-02T13:16:38.074Z,21.23
2022-12-02T13:19:06.155Z,19.55
2022-12-02T13:21:33.160Z,19.83
2022-12-02T13:23:59.993Z,20.67
2022-12-02T13:26:26.699Z,22.48
2022-12-02T13:28:53.591Z,20.40
2022-12-02T13:31:20.653Z,18.35
2022-12-02T13:33:47.510Z,27.10
2022-12-02T13:36:14.322Z,23.80
2022-12-02T13:38:41.046Z,19.75
2022-12-02T13:41:07.860Z,18.60
2022-12-02T13:43:34.611Z,20.83
2022-12-02T13:46:01.502Z,21.10
2022-12-02T13:48:28.289Z,21.77
2022-12-02T13:51:02.677Z,20.60
2022-12-02T13:53:29.489Z,18.52
2022-12-02T13:55:56.282Z,19.10
2022-12-02T13:58:22.997Z,22.45
2022-12-02T14:00:49.725Z,19.45
2022-12-02T14:03:16.507Z,21.30
2022-12-02T14:05:43.371Z,20.50
2022-12-02T14:08:10.246Z,24.65
2022-12-02T14:10:37.005Z,22.92
2022-12-02T14:13:03.958Z,22.27
2022-12-02T14:15:30.839Z,19.88
2022-12-02T14:17:57.667Z,21.38
2022-12-02T14:20:24.409Z,24.25
2022-12-02T14:22:51.224Z,21.98
2022-12-02T14:25:18.084Z,17.25
2022-12-02T14:27:44.827Z,21.80
2022-12-02T14:30:12.178Z,19.33
2022-12-02T14:32:39.140Z,20.20
2022-12-02T14:35:06.658Z,20.55
2022-12-02T14:37:33.609Z,21.83
2022-12-02T14:40:00.415Z,22.02
2022-12-02T14:42:27.134Z,22.73
2022-12-02T14:44:54.337Z,20.48
2022-12-02T14:47:21.157Z,25.45
2022-12-02T14:49:48.061Z,21.75
2022-12-02T14:52:14.910Z,21.50
2022-12-02T14:54:41.841Z,22.90
2022-12-02T14:57:13.560Z,23.50
2022-12-02T14:59:41.296Z,25.88
2022-12-02T15:02:09.307Z,24.58
2022-12-02T15:04:36.209Z,20.27
2022-12-02T15:07:03.091Z,20.77
2022-12-02T15:09:29.815Z,24.75
2022-12-02T15:11:57.750Z,16.00
2022-12-02T15:14:24.578Z,14.38
2022-12-02T15:16:51.539Z,18.92
2022-12-02T15:19:21.024Z,19.35
2022-12-02T15:21:47.786Z,20.35
2022-12-02T15:24:14.619Z,20.35
2022-12-02T15:26:41.408Z,21.40
2022-12-02T15:29:08.208Z,22.73
2022-12-02T15:31:35.132Z,22.17
2022-12-02T15:34:02.068Z,27.08
2022-12-02T15:36:28.791Z,16.02
2022-12-02T15:38:55.491Z,22.70
2022-12-02T15:41:22.273Z,19.40
2022-12-02T15:43:53.526Z,20.20
2022-12-02T15:46:26.221Z,24.35
2022-12-02T15:48:54.374Z,21.83
2022-12-02T15:51:21.266Z,19.00
2022-12-02T15:53:48.058Z,16.20
2022-12-02T15:56:15.089Z,17.90
2022-12-02T15:58:41.894Z,17.08
2022-12-02T16:01:08.779Z,20.05
2022-12-02T16:03:35.674Z,16.95
2022-12-02T16:06:02.464Z,26.35
2022-12-02T16:08:29.175Z,20.25
2022-12-02T16:10:55.901Z,18.33
2022-12-02T16:13:25.792Z,21.23
2022-12-02T16:15:55.594Z,19.63
2022-12-02T16:18:22.417Z,19.35
2022-12-02T16:20:55.844Z,23.48
2022-12-02T16:23:22.908Z,30.38
2022-12-02T16:25:49.698Z,21.00
2022-12-02T16:28:16.847Z,23.00
2022-12-02T16:30:43.528Z,20.17
2022-12-02T16:33:10.262Z,21.20
2022-12-02T16:35:37.022Z,20.65
2022-12-02T16:38:07.688Z,17.02
2022-12-02T16:40:34.482Z,19.75
2022-12-02T16:43:02.200Z,18.33
2022-12-02T16:45:29.174Z,25.20
2022-12-02T16:47:56.006Z,23.25
2022-12-02T16:50:22.772Z,20.00
2022-12-02T16:52:49.614Z,25.40
2022-12-02T16:55:16.366Z,20.38
2022-12-02T16:57:43.269Z,25.63
2022-12-02T17:00:10.553Z,22.33
2022-12-02T17:02:37.490Z,22.08
2022-12-02T17:05:04.577Z,27.08
2022-12-02T17:07:31.510Z,23.15
2022-12-02T17:09:58.282Z,23.83
2022-12-02T17:12:25.113Z,21.67
2022-12-02T17:14:54.986Z,20.38
2022-12-02T17:17:44.074Z,20.67
2022-12-02T17:20:09.861Z,18.70
2022-12-02T17:22:36.678Z,19.20
2022-12-02T17:25:03.585Z,22.95
2022-12-02T17:27:30.425Z,23.60
2022-12-02T17:29:57.315Z,25.45
2022-12-02T17:32:24.116Z,20.92
2022-12-02T17:34:51.127Z,21.88
2022-12-02T17:37:19.510Z,26.15
2022-12-02T17:39:46.333Z,29.80
2022-12-02T17:42:13.360Z,23.23
2022-12-02T17:44:40.114Z,25.02
2022-12-02T17:47:09.451Z,27.98
2022-12-02T17:49:36.306Z,23.30
2022-12-02T17:52:20.618Z,19.98
2022-12-02T17:54:48.140Z,22.45
2022-12-02T17:57:14.941Z,17.42
2022-12-02T17:59:41.699Z,19.73
2022-12-02T18:02:12.056Z,24.05
2022-12-02T18:04:43.916Z,19.25
2022-12-02T18:07:11.479Z,19.33
2022-12-02T18:09:38.524Z,24.30
2022-12-02T18:12:06.289Z,22.65
2022-12-02T18:14:33.069Z,22.50
2022-12-02T18:17:00.079Z,27.70
2022-12-02T18:19:27.025Z,19.67
2022-12-02T18:21:53.766Z,21.27
2022-12-02T18:24:20.920Z,20.65
2022-12-02T18:26:47.668Z,16.08
2022-12-02T18:29:14.472Z,21.58
2022-12-02T18:31:41.230Z,13.07
2022-12-02T18:34:07.943Z,17.95
2022-12-02T18:36:34.665Z,18.63
2022-12-02T18:39:01.448Z,14.80
2022-12-02T18:41:28.424Z,21.17
2022-12-02T18:43:55.326Z,22.40
2022-12-02T18:46:22.140Z,13.00
2022-12-02T18:48:48.926Z,18.67
2022-12-02T18:51:15.677Z,12.93
2022-12-02T18:53:42.411Z,14.95
2022-12-02T18:56:09.120Z,14.93
2022-12-02T18:58:35.834Z,15.68
2022-12-02T19:01:02.754Z,11.88
2022-12-02T19:03:29.591Z,11.48
2022-12-02T19:05:56.317Z,18.63
2022-12-02T19:08:23.094Z,12.80
2022-12-02T19:10:49.857Z,18.05
2022-12-02T19:13:20.161Z,11.65
2022-12-02T19:15:47.029Z,11.43
2022-12-02T19:18:14.300Z,11.70
2022-12-02T19:20:41.184Z,16.48
2022-12-02T19:23:07.928Z,18.48
2022-12-02T19:25:37.661Z,16.08
2022-12-02T19:28:09.356Z,18.45
2022-12-02T19:30:36.126Z,17.25
2022-12-02T19:33:02.890Z,15.02
2022-12-02T19:35:29.681Z,9.50
2022-12-02T19:38:02.654Z,13.05
2022-12-02T19:40:37.965Z,13.07
2022-12-02T19:43:07.677Z,14.35
2022-12-02T19:45:34.472Z,12.80
2022-12-02T19:48:01.336Z,12.98
2022-12-02T19:50:28.147Z,13.25
2022-12-02T19:52:54.887Z,13.48
2022-12-02T19:55:21.654Z,16.17
2022-12-02T19:57:48.425Z,14.43
2022-12-02T20:00:16.003Z,13.18
2022-12-02T20:02:42.903Z,17.73
2022-12-02T20:05:12.423Z,20.35
2022-12-02T20:07:39.283Z,12.73
2022-12-02T20:10:06.983Z,8.90
2022-12-02T20:12:33.710Z,13.63
2022-12-02T20:15:00.492Z,16.92
2022-12-02T20:17:27.210Z,13.38
2022-12-02T20:19:53.960Z,10.80
2022-12-02T20:22:24.829Z,10.38
2022-12-02T20:24:51.905Z,13.02
2022-12-02T20:27:19.352Z,10.27
2022-12-02T20:29:46.086Z,10.70
2022-12-02T20:32:12.803Z,13.57
2022-12-02T20:34:41.054Z,14.25
2022-12-02T20:37:08.481Z,10.82
2022-12-02T20:39:35.578Z,11.63
2022-12-02T20:42:02.593Z,10.80
2022-12-02T20:44:31.336Z,12.75
2022-12-02T20:46:58.436Z,11.75
2022-12-02T20:49:25.209Z,8.68
2022-12-02T20:51:52.336Z,16.35
2022-12-02T20:54:19.404Z,11.98
2022-12-02T20:56:46.891Z,12.07
2022-12-02T20:59:13.637Z,14.10
2022-12-02T21:01:40.913Z,16.25
2022-12-02T21:04:11.262Z,9.23
2022-12-02T21:06:38.163Z,13.10
2022-12-02T21:09:05.858Z,11.80
2022-12-02T21:11:33.069Z,13.38
2022-12-02T21:14:00.071Z,13.98
2022-12-02T21:16:26.953Z,13.50
2022-12-02T21:18:53.958Z,9.60
2022-12-02T21:21:20.925Z,12.40
2022-12-02T21:23:47.892Z,14.57
2022-12-02T21:26:14.782Z,12.23
2022-12-02T21:28:41.510Z,17.20
2022-12-02T21:31:08.299Z,14.77
2022-12-02T21:33:35.092Z,11.57
2022-12-02T21:36:01.846Z,12.38
2022-12-02T21:38:28.820Z,13.13
2022-12-02T21:40:55.584Z,12.10
2022-12-02T21:43:23.181Z,14.50
2022-12-02T21:45:50.218Z,19.20
2022-12-02T21:48:17.750Z,14.38
2022-12-02T21:50:44.670Z,13.75
2022-12-02T21:53:11.407Z,15.80
2022-12-02T21:55:38.173Z,18.50
2022-12-02T21:58:05.216Z,14.80
2022-12-02T22:00:32.199Z,10.73
2022-12-02T22:02:59.968Z,15.13
2022-12-02T22:05:28.802Z,16.23
2022-12-02T22:07:55.778Z,10.93
2022-12-02T22:10:26.566Z,14.45
2022-12-02T22:12:53.415Z,12.52
2022-12-02T22:15:21.297Z,15.80
2022-12-02T22:17:48.210Z,16.17
2022-12-02T22:20:15.231Z,14.07
2022-12-02T22:22:42.055Z,18.35
2022-12-02T22:25:09.408Z,18.15
2022-12-02T22:27:36.149Z,15.00
2022-12-02T22:30:03.102Z,14.88
2022-12-02T22:32:29.869Z,12.23
2022-12-02T22:34:56.823Z,16.45
2022-12-02T22:37:23.665Z,17.08
2022-12-02T22:39:50.431Z,15.27
2022-12-02T22:42:17.218Z,22.15
2022-12-02T22:44:43.997Z,17.42
2022-12-02T22:47:10.804Z,14.68
2022-12-02T22:49:38.251Z,12.73
2022-12-02T22:52:05.291Z,14.15
2022-12-02T22:54:32.001Z,16.17
2022-12-02T22:56:58.733Z,13.18
2022-12-02T22:59:25.458Z,16.67
2022-12-02T23:01:52.331Z,13.32
2022-12-02T23:04:19.230Z,13.15
2022-12-02T23:06:45.967Z,16.23
2022-12-02T23:09:12.971Z,14.65
2022-12-02T23:11:39.723Z,17.13
2022-12-02T23:14:06.676Z,17.08
2022-12-02T23:16:33.437Z,13.25
2022-12-02T23:19:00.276Z,18.08
2022-12-02T23:21:27.034Z,16.02
2022-12-02T23:23:54.052Z,15.85
2022-12-02T23:26:20.857Z,18.50
2022-12-02T23:28:47.641Z,14.10
2022-12-02T23:31:14.442Z,18.60
2022-12-02T23:33:41.402Z,17.02
2022-12-02T23:36:08.508Z,15.35
2022-12-02T23:38:35.319Z,15.48
2022-12-02T23:41:02.114Z,16.55
2022-12-02T23:43:29.177Z,14.90
2022-12-02T23:45:56.008Z,20.02
2022-12-02T23:48:22.891Z,14.02
2022-12-02T23:50:49.630Z,19.08
2022-12-02T23:53:16.355Z,23.10
2022-12-02T23:55:43.147Z,18.58
2022-12-02T23:58:09.904Z,15.57
